createdAt,value
2019-05-11T00:01:45.949Z,100.00
2019-05-11T00:04:35.871Z,100.00
2019-05-11T00:07:25.930Z,100.00
2019-05-11T00:10:16.342Z,100.00
2019-05-11T00:13:06.350Z,100.00
2019-05-11T00:15:56.634Z,100.00
2019-05-11T00:18:47.171Z,100.00
2019-05-11T00:21:37.471Z,100.00
2019-05-11T00:24:29.625Z,100.00
2019-05-11T00:27:20.432Z,100.00
2019-05-11T00:30:10.923Z,100.00
2019-05-11T00:33:01.121Z,100.00
2019-05-11T00:35:52.423Z,100.00
2019-05-11T00:38:42.737Z,100.00
2019-05-11T00:41:33.035Z,100.00
2019-05-11T00:44:23.317Z,100.00
2019-05-11T00:47:13.713Z,100.00
2019-05-11T00:50:03.900Z,100.00
2019-05-11T00:52:54.514Z,100.00
2019-05-11T00:55:45.621Z,100.00
2019-05-11T00:58:36.014Z,100.00
2019-05-11T01:01:26.494Z,100.00
2019-05-11T01:04:16.826Z,100.00
2019-05-11T01:07:06.844Z,100.00
2019-05-11T01:09:57.252Z,100.00
2019-05-11T01:12:47.251Z,100.00
2019-05-11T01:15:37.533Z,100.00
2019-05-11T01:18:27.817Z,100.00
2019-05-11T01:21:18.124Z,100.00
2019-05-11T01:24:08.246Z,100.00
2019-05-11T01:26:58.921Z,100.00
2019-05-11T01:29:49.086Z,100.00
2019-05-11T01:32:39.076Z,100.00
2019-05-11T01:35:29.293Z,100.00
2019-05-11T01:38:19.422Z,100.00
2019-05-11T01:41:09.454Z,100.00
2019-05-11T01:43:59.699Z,100.00
2019-05-11T01:46:49.809Z,100.00
2019-05-11T01:49:40.065Z,100.00
2019-05-11T01:52:30.463Z,100.00
2019-05-11T01:55:20.851Z,100.00
2019-05-11T01:58:11.181Z,100.00
2019-05-11T02:01:01.348Z,100.00
2019-05-11T02:03:51.694Z,100.00
2019-05-11T02:06:42.787Z,100.00
2019-05-11T02:09:33.945Z,100.00
2019-05-11T02:12:23.905Z,100.00
2019-05-11T02:15:13.982Z,100.00
2019-05-11T02:18:04.062Z,100.00
2019-05-11T02:20:54.401Z,100.00
2019-05-11T02:23:44.807Z,100.00
2019-05-11T02:26:34.895Z,100.00
2019-05-11T02:29:24.966Z,100.00
2019-05-11T02:32:15.270Z,100.00
2019-05-11T02:35:05.392Z,100.00
2019-05-11T02:37:55.416Z,100.00
2019-05-11T02:40:45.595Z,100.00
2019-05-11T02:43:35.567Z,100.00
2019-05-11T02:46:25.932Z,100.00
2019-05-11T02:49:16.154Z,100.00
2019-05-11T02:52:06.448Z,100.00
2019-05-11T02:54:56.857Z,100.00
2019-05-11T02:57:47.139Z,100.00
2019-05-11T03:00:41.774Z,100.00
2019-05-11T03:03:32.222Z,100.00
2019-05-11T03:06:22.536Z,100.00
2019-05-11T03:09:12.829Z,100.00
2019-05-11T03:12:03.039Z,100.00
2019-05-11T03:14:53.407Z,100.00
2019-05-11T03:17:44.710Z,100.00
2019-05-11T03:20:38.617Z,100.00
2019-05-11T03:23:33.140Z,100.00
2019-05-11T03:26:24.614Z,100.00
2019-05-11T03:29:15.983Z,100.00
2019-05-11T03:32:06.488Z,100.00
2019-05-11T03:34:56.769Z,100.00
2019-05-11T03:37:47.078Z,100.00
2019-05-11T03:40:37.431Z,100.00
2019-05-11T03:43:27.644Z,100.00
2019-05-11T03:46:20.819Z,100.00
2019-05-11T03:49:11.100Z,100.00
2019-05-11T03:52:01.552Z,100.00
2019-05-11T03:54:52.100Z,100.00
2019-05-11T03:57:42.389Z,100.00
2019-05-11T04:00:32.598Z,100.00
2019-05-11T04:03:22.925Z,99.22
2019-05-11T04:06:13.320Z,89.99
2019-05-11T04:09:06.115Z,81.66
2019-05-11T04:11:56.461Z,72.71
2019-05-11T04:14:46.537Z,63.85
2019-05-11T04:17:37.647Z,57.01
2019-05-11T04:20:28.087Z,51.84
2019-05-11T04:23:18.235Z,47.82
2019-05-11T04:26:08.753Z,44.64
2019-05-11T04:28:59.945Z,41.37
2019-05-11T04:31:51.071Z,38.18
2019-05-11T04:34:41.997Z,35.55
2019-05-11T04:37:32.806Z,33.94
2019-05-11T04:40:23.607Z,32.18
2019-05-11T04:43:14.381Z,30.87
2019-05-11T04:46:06.028Z,29.32
2019-05-11T04:48:56.784Z,27.80
2019-05-11T04:51:47.600Z,27.98
2019-05-11T04:54:38.584Z,28.30
2019-05-11T04:57:29.449Z,29.48
2019-05-11T05:00:20.068Z,28.78
2019-05-11T05:03:10.908Z,29.54
2019-05-11T05:06:20.990Z,28.12
2019-05-11T05:08:58.312Z,27.19
2019-05-11T05:11:46.789Z,25.71
2019-05-11T05:14:37.425Z,24.66
2019-05-11T05:17:29.018Z,23.00
2019-05-11T05:20:19.763Z,20.62
2019-05-11T05:23:10.750Z,19.81
2019-05-11T05:26:01.706Z,19.81
2019-05-11T05:28:52.404Z,18.09
2019-05-11T05:31:43.290Z,17.68
2019-05-11T05:34:33.950Z,16.62
2019-05-11T05:37:24.793Z,15.80
2019-05-11T05:40:15.200Z,14.52
2019-05-11T05:43:05.764Z,14.63
2019-05-11T05:45:56.376Z,13.94
2019-05-11T05:48:46.920Z,13.54
2019-05-11T05:51:39.951Z,12.94
2019-05-11T05:54:30.651Z,12.91
2019-05-11T05:57:21.173Z,12.50
2019-05-11T06:00:14.471Z,12.16
2019-05-11T06:03:05.123Z,11.79
2019-05-11T06:05:55.689Z,11.65
2019-05-11T06:08:46.315Z,11.59
2019-05-11T06:11:39.416Z,12.24
2019-05-11T06:14:29.940Z,12.37
2019-05-11T06:17:20.712Z,12.29
2019-05-11T06:20:11.956Z,12.30
2019-05-11T06:23:02.523Z,12.05
2019-05-11T06:25:52.985Z,12.42
2019-05-11T06:28:43.529Z,12.90
2019-05-11T06:31:34.517Z,13.06
2019-05-11T06:34:25.230Z,13.27
2019-05-11T06:37:15.829Z,12.64
2019-05-11T06:40:07.036Z,12.43
2019-05-11T06:42:57.529Z,12.17
2019-05-11T06:45:48.200Z,11.76
2019-05-11T06:48:38.799Z,10.63
2019-05-11T06:51:29.529Z,10.67
2019-05-11T06:54:20.165Z,10.54
2019-05-11T06:57:10.677Z,10.84
2019-05-11T07:00:01.402Z,10.05
2019-05-11T07:02:52.114Z,10.29
2019-05-11T07:05:42.694Z,9.79
2019-05-11T07:08:36.087Z,9.46
2019-05-11T07:11:27.531Z,9.97
2019-05-11T07:14:20.967Z,9.15
2019-05-11T07:17:09.808Z,9.28
2019-05-11T07:20:00.361Z,9.85
2019-05-11T07:22:50.609Z,11.80
2019-05-11T07:25:41.344Z,13.16
2019-05-11T07:28:31.905Z,15.52
2019-05-11T07:31:22.609Z,17.54
2019-05-11T07:34:13.212Z,18.92
2019-05-11T07:37:03.908Z,20.57
2019-05-11T07:39:54.920Z,20.30
2019-05-11T07:42:48.368Z,20.15
2019-05-11T07:45:38.814Z,19.86
2019-05-11T07:48:29.876Z,18.82
2019-05-11T07:51:23.305Z,21.98
2019-05-11T07:54:13.992Z,20.69
2019-05-11T07:57:05.019Z,20.69
2019-05-11T07:59:57.863Z,21.79
2019-05-11T08:02:48.925Z,21.79
2019-05-11T08:05:39.802Z,21.92
2019-05-11T08:08:30.749Z,20.75
2019-05-11T08:11:21.822Z,23.27
2019-05-11T08:14:12.957Z,23.64
2019-05-11T08:17:03.863Z,25.65
2019-05-11T08:19:54.539Z,24.65
2019-05-11T08:22:45.463Z,23.20
2019-05-11T08:25:37.933Z,23.63
2019-05-11T08:28:28.883Z,23.32
2019-05-11T08:31:19.653Z,24.39
2019-05-11T08:34:10.548Z,26.64
2019-05-11T08:37:01.380Z,24.71
2019-05-11T08:39:52.266Z,23.13
2019-05-11T08:42:42.853Z,18.38
2019-05-11T08:45:33.723Z,16.41
2019-05-11T08:48:24.272Z,13.65
2019-05-11T08:51:15.208Z,13.65
2019-05-11T08:54:08.758Z,14.69
2019-05-11T08:56:58.949Z,14.69
2019-05-11T08:59:49.768Z,12.99
2019-05-11T09:02:40.973Z,12.99
2019-05-11T09:05:31.673Z,13.92
2019-05-11T09:08:22.595Z,14.59
2019-05-11T09:11:13.368Z,15.79
2019-05-11T09:14:04.080Z,17.54
2019-05-11T09:16:54.893Z,20.56
2019-05-11T09:19:47.936Z,23.55
2019-05-11T09:22:38.284Z,24.05
2019-05-11T09:25:29.081Z,26.64
2019-05-11T09:28:19.897Z,28.71
2019-05-11T09:31:10.604Z,29.16
2019-05-11T09:34:01.411Z,27.94
2019-05-11T09:36:52.292Z,30.00
2019-05-11T09:39:43.285Z,31.45
2019-05-11T09:42:34.205Z,32.85
2019-05-11T09:45:25.126Z,36.42
2019-05-11T09:48:18.018Z,32.33
2019-05-11T09:51:08.878Z,33.00
2019-05-11T09:53:59.916Z,33.25
2019-05-11T09:56:50.857Z,32.63
2019-05-11T09:59:41.760Z,31.76
2019-05-11T10:02:32.455Z,30.63
2019-05-11T10:05:23.395Z,29.85
2019-05-11T10:08:18.150Z,30.38
2019-05-11T10:11:08.547Z,29.27
2019-05-11T10:13:59.429Z,29.96
2019-05-11T10:16:50.233Z,28.51
2019-05-11T10:19:41.034Z,28.45
2019-05-11T10:22:32.178Z,28.98
2019-05-11T10:25:23.157Z,30.17
2019-05-11T10:28:14.488Z,30.73
2019-05-11T10:31:05.324Z,30.37
2019-05-11T10:33:57.966Z,30.91
2019-05-11T10:36:48.853Z,30.17
2019-05-11T10:39:39.516Z,30.20
2019-05-11T10:42:30.315Z,30.76
2019-05-11T10:45:21.041Z,30.23
2019-05-11T10:48:11.844Z,31.06
2019-05-11T10:51:02.802Z,31.69
2019-05-11T10:53:53.764Z,30.76
2019-05-11T10:56:44.770Z,31.54
2019-05-11T10:59:35.745Z,31.45
2019-05-11T11:02:27.867Z,30.22
2019-05-11T11:05:18.975Z,31.10
2019-05-11T11:08:09.862Z,30.86
2019-05-11T11:11:00.672Z,30.56
2019-05-11T11:13:51.496Z,31.02
2019-05-11T11:16:43.023Z,30.41
2019-05-11T11:19:33.925Z,29.17
2019-05-11T11:22:39.127Z,29.46
2019-05-11T11:25:18.214Z,31.19
2019-05-11T11:28:09.153Z,30.20
2019-05-11T11:30:59.906Z,30.10
2019-05-11T11:33:49.969Z,29.58
2019-05-11T11:36:40.302Z,29.75
2019-05-11T11:39:30.660Z,29.60
2019-05-11T11:42:20.822Z,29.58
2019-05-11T11:45:11.044Z,30.64
2019-05-11T11:48:01.338Z,30.99
2019-05-11T11:50:51.715Z,29.31
2019-05-11T11:53:43.114Z,29.25
2019-05-11T11:56:33.865Z,29.28
2019-05-11T11:59:24.798Z,29.59
2019-05-11T12:02:15.630Z,30.96
2019-05-11T12:05:08.604Z,31.08
2019-05-11T12:07:58.728Z,29.92
2019-05-11T12:10:48.749Z,30.69
2019-05-11T12:13:38.750Z,30.91
2019-05-11T12:16:29.009Z,30.71
2019-05-11T12:19:19.985Z,31.47
2019-05-11T12:22:11.025Z,31.63
2019-05-11T12:25:01.145Z,30.27
2019-05-11T12:27:51.619Z,30.63
2019-05-11T12:30:42.552Z,30.91
2019-05-11T12:33:32.789Z,31.18
2019-05-11T12:36:23.561Z,30.63
2019-05-11T12:39:13.956Z,31.13
2019-05-11T12:42:04.161Z,31.49
2019-05-11T12:44:54.484Z,29.26
2019-05-11T12:47:44.541Z,31.38
2019-05-11T12:50:37.724Z,30.90
2019-05-11T12:53:28.099Z,31.44
2019-05-11T12:56:19.161Z,31.88
2019-05-11T12:59:09.599Z,31.08
2019-05-11T13:02:00.129Z,31.30
2019-05-11T13:04:53.433Z,30.87
2019-05-11T13:07:43.967Z,30.11
2019-05-11T13:10:37.607Z,30.48
2019-05-11T13:13:28.564Z,30.56
2019-05-11T13:16:18.969Z,32.08
2019-05-11T13:19:09.563Z,31.10
2019-05-11T13:21:59.644Z,30.74
2019-05-11T13:24:50.159Z,31.03
2019-05-11T13:27:40.206Z,30.46
2019-05-11T13:30:30.366Z,31.41
2019-05-11T13:33:20.669Z,31.06
2019-05-11T13:36:10.905Z,32.76
2019-05-11T13:39:00.950Z,32.30
2019-05-11T13:41:52.622Z,33.16
2019-05-11T13:44:42.736Z,34.20
2019-05-11T13:47:32.950Z,33.33
2019-05-11T13:50:23.130Z,33.59
2019-05-11T13:53:13.116Z,33.18
2019-05-11T13:56:03.049Z,33.13
2019-05-11T13:58:53.415Z,32.97
2019-05-11T14:01:43.483Z,33.08
2019-05-11T14:04:33.912Z,33.71
2019-05-11T14:07:24.064Z,34.09
2019-05-11T14:10:14.343Z,33.53
2019-05-11T14:13:04.546Z,33.53
2019-05-11T14:15:54.900Z,33.41
2019-05-11T14:18:45.065Z,33.91
2019-05-11T14:21:35.319Z,34.02
2019-05-11T14:24:25.605Z,33.98
2019-05-11T14:27:17.785Z,33.31
2019-05-11T14:30:08.524Z,33.92
2019-05-11T14:32:58.937Z,34.55
2019-05-11T14:35:49.118Z,34.60
2019-05-11T14:38:39.771Z,33.88
2019-05-11T14:41:30.072Z,33.62
2019-05-11T14:44:20.548Z,34.64
2019-05-11T14:47:10.999Z,34.38
2019-05-11T14:50:01.328Z,34.15
2019-05-11T14:52:51.489Z,33.82
2019-05-11T14:55:41.821Z,34.05
2019-05-11T14:58:31.944Z,33.88
2019-05-11T15:01:22.260Z,33.20
2019-05-11T15:04:12.453Z,32.05
2019-05-11T15:07:02.615Z,31.90
2019-05-11T15:09:52.645Z,33.75
2019-05-11T15:12:43.399Z,35.37
2019-05-11T15:15:33.524Z,35.57
2019-05-11T15:18:35.267Z,35.31
2019-05-11T15:21:15.431Z,34.65
2019-05-11T15:24:05.704Z,35.03
2019-05-11T15:26:57.544Z,36.91
2019-05-11T15:29:47.881Z,38.58
2019-05-11T15:32:38.595Z,40.27
2019-05-11T15:35:29.360Z,41.44
2019-05-11T15:38:19.539Z,42.25
2019-05-11T15:41:09.841Z,42.35
2019-05-11T15:44:00.151Z,45.00
2019-05-11T15:46:50.327Z,42.99
2019-05-11T15:49:40.465Z,43.32
2019-05-11T15:52:30.849Z,43.11
2019-05-11T15:55:21.057Z,43.96
2019-05-11T15:58:11.333Z,44.72
2019-05-11T16:01:01.584Z,47.20
2019-05-11T16:03:51.968Z,46.45
2019-05-11T16:06:41.888Z,46.92
2019-05-11T16:09:32.229Z,51.69
2019-05-11T16:12:22.453Z,51.35
2019-05-11T16:15:12.636Z,53.18
2019-05-11T16:18:03.002Z,52.70
2019-05-11T16:20:53.328Z,52.04
2019-05-11T16:23:43.609Z,52.00
2019-05-11T16:26:33.864Z,53.18
2019-05-11T16:29:24.104Z,55.01
2019-05-11T16:32:14.391Z,53.50
2019-05-11T16:35:04.945Z,57.10
2019-05-11T16:37:55.410Z,57.46
2019-05-11T16:40:47.900Z,53.04
2019-05-11T16:43:38.478Z,49.64
2019-05-11T16:46:28.969Z,49.42
2019-05-11T16:49:28.618Z,47.67
2019-05-11T16:52:11.310Z,45.03
2019-05-11T16:55:01.735Z,44.51
2019-05-11T16:57:52.985Z,44.51
2019-05-11T17:00:43.001Z,43.29
2019-05-11T17:03:32.960Z,43.32
2019-05-11T17:06:23.279Z,44.30
2019-05-11T17:09:13.483Z,45.99
2019-05-11T17:12:03.826Z,47.36
2019-05-11T17:15:00.600Z,47.83
2019-05-11T17:17:50.864Z,48.64
2019-05-11T17:20:41.083Z,49.86
2019-05-11T17:23:31.487Z,50.77
2019-05-11T17:26:21.441Z,52.25
2019-05-11T17:29:11.530Z,51.06
2019-05-11T17:32:01.968Z,49.85
2019-05-11T17:34:52.389Z,49.85
2019-05-11T17:37:42.313Z,53.94
2019-05-11T17:40:32.678Z,53.94
2019-05-11T17:43:22.964Z,52.93
2019-05-11T17:46:13.239Z,54.67
2019-05-11T17:49:03.261Z,59.37
2019-05-11T17:51:53.604Z,59.61
2019-05-11T17:54:43.891Z,59.82
2019-05-11T17:57:34.189Z,57.09
2019-05-11T18:00:24.461Z,57.45
2019-05-11T18:03:14.809Z,57.33
2019-05-11T18:06:05.037Z,56.16
2019-05-11T18:08:55.617Z,56.16
2019-05-11T18:11:48.114Z,56.33
2019-05-11T18:14:39.463Z,56.80
2019-05-11T18:17:29.525Z,58.47
2019-05-11T18:20:21.772Z,61.15
2019-05-11T18:23:11.630Z,61.45
2019-05-11T18:26:02.959Z,61.45
2019-05-11T18:28:53.136Z,57.26
2019-05-11T18:31:43.494Z,55.99
2019-05-11T18:34:33.526Z,56.73
2019-05-11T18:37:23.938Z,54.98
2019-05-11T18:40:14.443Z,55.60
2019-05-11T18:43:04.861Z,55.60
2019-05-11T18:45:55.033Z,58.16
2019-05-11T18:48:45.370Z,58.16
2019-05-11T18:51:37.813Z,57.58
2019-05-11T18:54:28.401Z,56.16
2019-05-11T18:57:18.844Z,51.52
2019-05-11T19:00:09.080Z,50.46
2019-05-11T19:02:59.753Z,49.67
2019-05-11T19:05:50.044Z,49.67
2019-05-11T19:08:40.272Z,47.32
2019-05-11T19:11:30.753Z,46.80
2019-05-11T19:14:21.191Z,44.33
2019-05-11T19:17:11.201Z,44.12
2019-05-11T19:20:01.442Z,44.98
2019-05-11T19:22:51.708Z,44.98
2019-05-11T19:25:42.008Z,46.24
2019-05-11T19:28:32.133Z,48.01
2019-05-11T19:31:22.526Z,50.27
2019-05-11T19:34:12.720Z,52.81
2019-05-11T19:37:03.203Z,53.85
2019-05-11T19:39:53.588Z,56.17
2019-05-11T19:42:58.772Z,67.83
2019-05-11T19:45:48.806Z,67.83
2019-05-11T19:48:38.830Z,70.29
2019-05-11T19:51:29.248Z,70.51
2019-05-11T19:54:19.527Z,71.54
2019-05-11T19:57:09.849Z,71.59
2019-05-11T20:00:01.021Z,73.62
2019-05-11T20:02:51.184Z,73.68
2019-05-11T20:05:41.529Z,75.53
2019-05-11T20:08:31.902Z,70.84
2019-05-11T20:11:22.273Z,70.37
2019-05-11T20:14:12.523Z,71.06
2019-05-11T20:17:02.875Z,71.11
2019-05-11T20:19:53.059Z,74.18
2019-05-11T20:22:43.388Z,79.08
2019-05-11T20:25:33.632Z,84.34
2019-05-11T20:28:23.916Z,88.25
2019-05-11T20:31:13.953Z,93.63
2019-05-11T20:34:04.344Z,96.37
2019-05-11T20:36:54.773Z,96.89
2019-05-11T20:39:45.056Z,97.23
2019-05-11T20:42:37.936Z,97.40
2019-05-11T20:45:28.540Z,98.17
2019-05-11T20:48:19.097Z,99.19
2019-05-11T20:51:09.176Z,99.58
2019-05-11T20:53:59.387Z,100.00
2019-05-11T20:56:49.590Z,100.00
2019-05-11T20:59:39.815Z,100.00
2019-05-11T21:02:30.127Z,100.00
2019-05-11T21:05:20.285Z,100.00
2019-05-11T21:08:10.676Z,98.62
2019-05-11T21:11:01.378Z,97.49
2019-05-11T21:13:51.577Z,95.48
2019-05-11T21:16:41.616Z,95.61
2019-05-11T21:19:31.856Z,95.97
2019-05-11T21:22:21.926Z,97.19
2019-05-11T21:25:12.261Z,97.46
2019-05-11T21:28:02.266Z,97.02
2019-05-11T21:30:52.545Z,96.82
2019-05-11T21:33:42.700Z,95.45
2019-05-11T21:36:34.245Z,94.91
2019-05-11T21:39:24.461Z,94.04
2019-05-11T21:42:14.808Z,92.95
2019-05-11T21:45:05.130Z,92.87
2019-05-11T21:47:55.204Z,91.48
2019-05-11T21:50:46.692Z,91.78
2019-05-11T21:53:38.159Z,91.46
2019-05-11T21:56:28.982Z,91.38
2019-05-11T21:59:19.300Z,90.55
2019-05-11T22:02:11.042Z,92.57
2019-05-11T22:05:03.339Z,93.22
2019-05-11T22:07:53.480Z,93.79
2019-05-11T22:10:43.835Z,89.54
2019-05-11T22:13:33.877Z,90.28
2019-05-11T22:16:24.299Z,93.04
2019-05-11T22:19:14.715Z,93.06
2019-05-11T22:22:20.635Z,96.05
2019-05-11T22:24:58.418Z,98.58
2019-05-11T22:27:49.745Z,100.00
2019-05-11T22:30:39.963Z,100.00
2019-05-11T22:33:29.961Z,100.00
2019-05-11T22:36:20.253Z,100.00
2019-05-11T22:39:10.612Z,100.00
2019-05-11T22:42:00.692Z,100.00
2019-05-11T22:44:51.057Z,100.00
2019-05-11T22:47:41.098Z,100.00
2019-05-11T22:50:31.495Z,100.00
2019-05-11T22:53:22.051Z,100.00
2019-05-11T22:56:12.624Z,100.00
2019-05-11T22:59:02.825Z,100.00
2019-05-11T23:01:53.128Z,100.00
2019-05-11T23:04:43.420Z,100.00
2019-05-11T23:07:33.675Z,100.00
2019-05-11T23:10:23.729Z,100.00
2019-05-11T23:13:13.999Z,100.00
2019-05-11T23:16:04.273Z,100.00
2019-05-11T23:18:54.619Z,100.00
2019-05-11T23:21:45.134Z,100.00
2019-05-11T23:24:35.467Z,100.00
2019-05-11T23:27:28.539Z,100.00
2019-05-11T23:30:19.657Z,100.00
2019-05-11T23:33:10.308Z,100.00
2019-05-11T23:36:00.567Z,100.00
2019-05-11T23:38:51.424Z,100.00
2019-05-11T23:41:41.418Z,100.00
2019-05-11T23:44:31.576Z,100.00
2019-05-11T23:47:21.910Z,100.00
2019-05-11T23:50:12.225Z,100.00
2019-05-11T23:53:06.660Z,100.00
2019-05-11T23:55:57.791Z,100.00
2019-05-11T23:58:48.236Z,100.00
